首页
METAR-TAF:

METAR-TAF

机场 :

費城國際機場

費城, 宾夕法尼亚州, 美国

纬度: 39-52-06N, 经度: 075-13-52W, 海拔: 6米

当前天气观测

该预报发布于27分钟前的02:54 UTC
风速15节,风向西北,有时为21节阵风
温度 1°C
湿度 37%
气压 1033 hPa
能見度: 16.1公里
天空无云

METAR: KPHL 120254Z 31015G21KT 10SM CLR 01/M12 A3049 RMK AO2 SLP326 T00061122 53021 $

时间: 22:21 (03:21 UTC)

预报

该预报发布于13分钟前的03:08 UTC
预报有效从12日的 03点(UTC)到 13日的 06点(UTC)
风速10节,风向西转西北,有时为18节阵风
能見度: 10公里
天空无云
从 12日的 0400点(UTC)
风速5节,风向西北
能見度: 10公里
天空无云
从 12日的 0900点(UTC)
风速5节,风向
能見度: 10公里
天空无云
从 12日的 2100点(UTC)
风速4节,风向南转南东
能見度: 10公里
天空无云
从 13日的 0400点(UTC)
风速4节,风向东转东南
能見度: 10公里
散云层高于3500英尺

TAF: KPHL 120308Z 1203/1306 30010G18KT P6SM SKC FM120400 32005KT P6SM SKC FM120900 35005KT P6SM SKC FM122100 15004KT P6SM SKC FM130400 12004KT P6SM SCT035

超过4000个机场的气象观测和天气预报(METAR&TAF报告)。

可查询的气象台以黄色和红色小点在地图上表示。

将鼠标移到小点上方,可查看气象台名称。

然后点击查看天气观测和预报。

如需切换地图:点击带黑十字的绿色按钮放大地图;点击带横线的绿色按钮缩小地图;或者点击绿色箭头查看邻近地区的地图。


METAR-TAF: